createdAt,value
2018-12-07T00:00:24.469Z,11.69
2018-12-07T00:00:59.116Z,11.75
2018-12-07T00:01:33.803Z,11.66
2018-12-07T00:02:09.815Z,11.64
2018-12-07T00:02:44.791Z,11.64
2018-12-07T00:03:19.435Z,11.58
2018-12-07T00:03:54.157Z,11.66
2018-12-07T00:04:28.746Z,11.67
2018-12-07T00:05:04.473Z,11.69
2018-12-07T00:05:39.065Z,11.73
2018-12-07T00:06:13.802Z,11.76
2018-12-07T00:06:48.460Z,11.71
2018-12-07T00:07:23.184Z,11.73
2018-12-07T00:07:57.825Z,11.75
2018-12-07T00:08:32.446Z,11.68
2018-12-07T00:09:07.379Z,11.68
2018-12-07T00:09:41.999Z,11.67
2018-12-07T00:10:16.976Z,11.56
2018-12-07T00:10:51.613Z,11.58
2018-12-07T00:11:26.890Z,11.62
2018-12-07T00:12:01.478Z,11.57
2018-12-07T00:12:36.682Z,11.64
2018-12-07T00:13:11.276Z,11.63
2018-12-07T00:13:46.347Z,11.71
2018-12-07T00:14:20.939Z,11.70
2018-12-07T00:14:55.697Z,11.67
2018-12-07T00:15:30.736Z,11.62
2018-12-07T00:16:05.841Z,11.63
2018-12-07T00:16:40.414Z,11.67
2018-12-07T00:17:15.006Z,11.62
2018-12-07T00:17:49.616Z,11.65
2018-12-07T00:18:24.330Z,11.58
2018-12-07T00:18:59.013Z,11.66
2018-12-07T00:19:33.605Z,11.71
2018-12-07T00:20:09.615Z,11.62
2018-12-07T00:20:44.210Z,11.62
2018-12-07T00:21:18.882Z,11.58
2018-12-07T00:21:54.006Z,11.61
2018-12-07T00:22:28.615Z,11.59
2018-12-07T00:23:03.202Z,11.62
2018-12-07T00:23:37.782Z,11.64
2018-12-07T00:24:12.747Z,11.62
2018-12-07T00:24:47.393Z,11.69
2018-12-07T00:25:23.434Z,11.68
2018-12-07T00:25:58.050Z,11.64
2018-12-07T00:26:32.692Z,11.65
2018-12-07T00:27:07.287Z,11.71
2018-12-07T00:27:41.868Z,11.64
2018-12-07T00:28:16.513Z,11.61
2018-12-07T00:28:51.278Z,11.71
2018-12-07T00:29:26.038Z,11.64
2018-12-07T00:30:00.678Z,11.61
2018-12-07T00:30:35.839Z,11.66
2018-12-07T00:31:10.768Z,11.69
2018-12-07T00:31:45.465Z,11.66
2018-12-07T00:32:20.134Z,11.68
2018-12-07T00:32:54.778Z,11.74
2018-12-07T00:33:29.395Z,11.78
2018-12-07T00:34:04.572Z,11.73
2018-12-07T00:34:39.176Z,11.70
2018-12-07T00:35:14.514Z,11.67
2018-12-07T00:35:49.148Z,11.67
2018-12-07T00:36:23.793Z,11.69
2018-12-07T00:36:58.381Z,11.66
2018-12-07T00:37:33.205Z,11.66
2018-12-07T00:38:07.827Z,11.72
2018-12-07T00:38:42.427Z,11.67
2018-12-07T00:39:17.092Z,11.64
2018-12-07T00:39:51.837Z,11.60
2018-12-07T00:40:26.485Z,11.61
2018-12-07T00:41:01.178Z,11.63
2018-12-07T00:41:35.807Z,11.61
2018-12-07T00:42:10.412Z,11.62
2018-12-07T00:42:45.040Z,11.67
2018-12-07T00:43:19.711Z,11.76
2018-12-07T00:43:54.394Z,11.73
2018-12-07T00:44:28.977Z,11.70
2018-12-07T00:45:04.699Z,11.68
2018-12-07T00:45:39.326Z,11.62
2018-12-07T00:46:13.989Z,11.70
2018-12-07T00:46:48.677Z,11.75
2018-12-07T00:47:23.420Z,11.69
2018-12-07T00:47:58.017Z,11.65
2018-12-07T00:48:32.680Z,11.69
2018-12-07T00:49:07.344Z,11.61
2018-12-07T00:49:41.932Z,11.62
2018-12-07T00:50:16.525Z,11.65
2018-12-07T00:50:51.298Z,11.64
2018-12-07T00:51:25.897Z,11.63
2018-12-07T00:52:00.565Z,11.67
2018-12-07T00:52:35.120Z,11.58
2018-12-07T00:53:09.803Z,11.73
2018-12-07T00:53:44.389Z,11.71
2018-12-07T00:54:18.979Z,11.70
2018-12-07T00:54:53.561Z,11.63
2018-12-07T00:55:38.801Z,11.65
2018-12-07T00:56:13.457Z,11.63
2018-12-07T00:56:48.271Z,11.64
2018-12-07T00:57:22.865Z,11.64
2018-12-07T00:57:57.466Z,11.68
2018-12-07T00:58:32.087Z,11.75
2018-12-07T00:59:06.675Z,11.71
2018-12-07T00:59:41.283Z,11.72
2018-12-07T01:00:15.908Z,11.79
2018-12-07T01:00:50.620Z,11.75
2018-12-07T01:01:25.241Z,11.69
2018-12-07T01:01:59.830Z,11.71
2018-12-07T01:02:34.447Z,11.73
2018-12-07T01:03:09.063Z,11.68
2018-12-07T01:03:43.646Z,11.69
2018-12-07T01:04:18.298Z,11.74
2018-12-07T01:04:52.894Z,11.76
2018-12-07T01:05:27.736Z,11.71
2018-12-07T01:06:02.288Z,11.71
2018-12-07T01:06:36.906Z,11.72
2018-12-07T01:07:11.481Z,11.73
2018-12-07T01:07:46.078Z,11.76
2018-12-07T01:08:20.691Z,11.72
2018-12-07T01:08:55.579Z,11.72
2018-12-07T01:09:30.165Z,11.75
2018-12-07T01:10:06.233Z,11.69
2018-12-07T01:10:41.324Z,11.78
2018-12-07T01:11:15.942Z,11.77
2018-12-07T01:11:50.610Z,11.71
2018-12-07T01:12:25.239Z,11.70
2018-12-07T01:12:59.825Z,11.71
2018-12-07T01:13:34.383Z,11.67
2018-12-07T01:14:09.326Z,11.70
2018-12-07T01:14:44.465Z,11.72
2018-12-07T01:15:19.251Z,11.72
2018-12-07T01:15:53.879Z,11.72
2018-12-07T01:16:28.528Z,11.69
2018-12-07T01:17:03.160Z,11.67
2018-12-07T01:17:37.779Z,11.69
2018-12-07T01:18:12.784Z,11.68
2018-12-07T01:18:47.530Z,11.65
2018-12-07T01:19:22.168Z,11.67
2018-12-07T01:19:56.758Z,11.64
2018-12-07T01:20:31.405Z,11.61
2018-12-07T01:21:06.247Z,11.60
2018-12-07T01:21:41.005Z,11.65
2018-12-07T01:22:22.413Z,11.65
2018-12-07T01:22:57.036Z,11.65
2018-12-07T01:23:32.014Z,11.64
2018-12-07T01:24:06.645Z,11.68
2018-12-07T01:24:41.210Z,11.73
2018-12-07T01:25:15.835Z,11.71
2018-12-07T01:26:20.344Z,11.70
2018-12-07T01:26:55.031Z,11.69
2018-12-07T01:27:29.713Z,11.72
2018-12-07T01:28:04.333Z,11.75
2018-12-07T01:28:38.913Z,11.73
2018-12-07T01:29:13.547Z,11.69
2018-12-07T01:29:48.372Z,11.65
2018-12-07T01:30:23.026Z,11.66
2018-12-07T01:30:57.645Z,11.67
2018-12-07T01:31:32.306Z,11.69
2018-12-07T01:32:07.384Z,11.67
2018-12-07T01:32:42.075Z,11.71
2018-12-07T01:33:16.744Z,11.73
2018-12-07T01:33:51.431Z,11.77
2018-12-07T01:34:26.090Z,11.65
2018-12-07T01:35:00.748Z,11.66
2018-12-07T01:35:35.369Z,11.71
2018-12-07T01:36:10.245Z,11.79
2018-12-07T01:36:44.844Z,11.73
2018-12-07T01:37:19.923Z,11.71
2018-12-07T01:37:54.549Z,11.67
2018-12-07T01:38:29.246Z,11.68
2018-12-07T01:39:06.252Z,11.65
2018-12-07T01:39:40.861Z,11.65
2018-12-07T01:40:15.457Z,11.69
2018-12-07T01:40:50.051Z,11.63
2018-12-07T01:41:24.704Z,11.75
2018-12-07T01:41:59.513Z,11.76
2018-12-07T01:42:34.096Z,11.80
2018-12-07T01:43:08.702Z,11.77
2018-12-07T01:43:43.317Z,11.83
2018-12-07T01:44:18.026Z,11.85
2018-12-07T01:44:52.912Z,11.82
2018-12-07T01:45:27.562Z,11.72
2018-12-07T01:46:02.298Z,11.70
2018-12-07T01:46:36.881Z,11.66
2018-12-07T01:47:11.496Z,11.70
2018-12-07T01:47:46.440Z,11.67
2018-12-07T01:48:21.162Z,11.65
2018-12-07T01:48:55.944Z,11.69
2018-12-07T01:49:30.969Z,11.67
2018-12-07T01:50:06.575Z,11.64
2018-12-07T01:50:41.409Z,11.64
2018-12-07T01:51:16.236Z,11.66
2018-12-07T01:51:50.905Z,11.66
2018-12-07T01:52:25.566Z,11.73
2018-12-07T01:53:00.210Z,11.71
2018-12-07T01:53:34.854Z,11.69
2018-12-07T01:54:09.735Z,11.75
2018-12-07T01:54:44.349Z,11.69
2018-12-07T01:55:19.086Z,11.72
2018-12-07T01:55:53.844Z,11.72
2018-12-07T01:56:28.534Z,11.69
2018-12-07T01:57:03.119Z,11.65
2018-12-07T01:57:37.742Z,11.65
2018-12-07T01:58:12.381Z,11.64
2018-12-07T01:58:47.110Z,11.65
2018-12-07T01:59:21.940Z,11.64
2018-12-07T01:59:56.576Z,11.65
2018-12-07T02:00:32.116Z,11.71
2018-12-07T02:01:06.738Z,11.72
2018-12-07T02:01:41.327Z,11.80
2018-12-07T02:02:16.077Z,11.71
2018-12-07T02:02:50.960Z,11.75
2018-12-07T02:03:25.738Z,11.80
2018-12-07T02:04:00.485Z,11.80
2018-12-07T02:04:35.169Z,11.73
2018-12-07T02:05:10.293Z,11.72
2018-12-07T02:05:44.912Z,11.71
2018-12-07T02:06:19.695Z,11.75
2018-12-07T02:06:54.847Z,11.78
2018-12-07T02:07:34.769Z,11.75
2018-12-07T02:08:09.379Z,11.77
2018-12-07T02:08:44.046Z,11.73
2018-12-07T02:09:19.093Z,11.76
2018-12-07T02:09:53.968Z,11.81
2018-12-07T02:10:28.568Z,11.76
2018-12-07T02:11:03.158Z,11.70
2018-12-07T02:11:37.822Z,11.79
2018-12-07T02:12:12.445Z,11.76
2018-12-07T02:12:47.202Z,11.79
2018-12-07T02:13:21.916Z,11.77
2018-12-07T02:13:56.568Z,11.75
2018-12-07T02:14:31.216Z,11.81
2018-12-07T02:15:07.172Z,11.82
2018-12-07T02:15:41.867Z,11.77
2018-12-07T02:16:16.542Z,11.85
2018-12-07T02:16:51.210Z,11.83
2018-12-07T02:17:25.959Z,11.78
2018-12-07T02:18:00.650Z,11.82
2018-12-07T02:18:35.330Z,11.83
2018-12-07T02:19:09.927Z,11.82
2018-12-07T02:19:44.521Z,11.78
2018-12-07T02:20:19.496Z,11.82
2018-12-07T02:20:54.297Z,11.83
2018-12-07T02:21:28.902Z,11.80
2018-12-07T02:22:04.421Z,11.82
2018-12-07T02:22:39.072Z,11.84
2018-12-07T02:23:13.677Z,11.74
2018-12-07T02:23:48.380Z,11.77
2018-12-07T02:24:23.052Z,11.80
2018-12-07T02:24:57.641Z,11.83
2018-12-07T02:25:32.259Z,11.89
2018-12-07T02:26:06.875Z,11.89
2018-12-07T02:26:41.458Z,11.83
2018-12-07T02:27:16.111Z,11.84
2018-12-07T02:27:56.029Z,11.81
2018-12-07T02:28:30.845Z,11.89
2018-12-07T02:29:05.434Z,11.79
2018-12-07T02:29:40.515Z,11.83
2018-12-07T02:30:15.104Z,11.78
2018-12-07T02:30:49.832Z,11.79
2018-12-07T02:31:24.469Z,11.81
2018-12-07T02:31:59.056Z,11.77
2018-12-07T02:32:33.646Z,11.85
2018-12-07T02:33:08.275Z,11.84
2018-12-07T02:33:43.307Z,11.82
2018-12-07T02:34:18.110Z,11.81
2018-12-07T02:34:52.752Z,11.83
2018-12-07T02:35:27.362Z,11.81
2018-12-07T02:37:05.111Z,11.83
2018-12-07T02:37:39.720Z,11.68
2018-12-07T02:38:14.359Z,11.70
2018-12-07T02:38:48.999Z,11.64
2018-12-07T02:39:23.662Z,11.65
2018-12-07T02:39:58.260Z,11.68
2018-12-07T02:40:33.036Z,11.70
2018-12-07T02:41:07.604Z,11.78
2018-12-07T02:41:42.254Z,11.78
2018-12-07T02:42:17.086Z,11.79
2018-12-07T02:42:51.803Z,11.83
2018-12-07T02:43:26.492Z,11.84
2018-12-07T02:44:01.573Z,11.88
2018-12-07T02:44:36.533Z,11.88
2018-12-07T02:45:11.977Z,11.81
2018-12-07T02:45:46.613Z,11.75
2018-12-07T02:46:21.838Z,11.76
2018-12-07T02:46:56.450Z,11.69
2018-12-07T02:47:31.091Z,11.60
2018-12-07T02:48:06.384Z,11.67
2018-12-07T02:48:40.985Z,11.63
2018-12-07T02:49:15.610Z,11.65
2018-12-07T02:49:50.294Z,11.61
2018-12-07T02:50:25.081Z,11.58
2018-12-07T02:50:59.696Z,11.60
2018-12-07T02:51:34.286Z,11.58
2018-12-07T02:52:08.897Z,11.62
2018-12-07T02:52:43.533Z,11.56
2018-12-07T02:53:18.267Z,11.58
2018-12-07T02:53:53.048Z,11.61
2018-12-07T02:54:27.794Z,11.58
2018-12-07T02:55:02.391Z,11.64
2018-12-07T02:55:37.022Z,11.72
2018-12-07T02:56:11.629Z,11.69
2018-12-07T02:56:46.273Z,11.65
2018-12-07T02:57:20.935Z,11.64
2018-12-07T02:57:55.880Z,11.61
2018-12-07T02:58:30.507Z,11.62
2018-12-07T02:59:05.246Z,11.58
2018-12-07T02:59:39.813Z,11.52
2018-12-07T03:00:15.395Z,11.56
2018-12-07T03:00:50.384Z,11.60
2018-12-07T03:01:25.075Z,11.61
2018-12-07T03:02:00.048Z,11.58
2018-12-07T03:02:34.643Z,11.64
2018-12-07T03:03:09.267Z,11.63
2018-12-07T03:03:43.971Z,11.68
2018-12-07T03:04:18.968Z,11.68
2018-12-07T03:04:53.585Z,11.63
2018-12-07T03:05:28.234Z,11.65
2018-12-07T03:06:02.837Z,11.66
2018-12-07T03:06:37.413Z,11.57
2018-12-07T03:07:12.070Z,11.60
2018-12-07T03:07:46.678Z,11.66
2018-12-07T03:08:21.646Z,11.62
2018-12-07T03:08:56.317Z,11.62
2018-12-07T03:09:30.923Z,11.57
2018-12-07T03:10:06.432Z,11.57
2018-12-07T03:10:41.114Z,11.60
2018-12-07T03:11:15.757Z,11.58
2018-12-07T03:11:50.739Z,11.62
2018-12-07T03:12:25.422Z,11.63
2018-12-07T03:13:00.020Z,11.61
2018-12-07T03:13:34.597Z,11.56
2018-12-07T03:14:09.193Z,11.60
2018-12-07T03:14:43.888Z,11.62
2018-12-07T03:15:18.573Z,11.60
2018-12-07T03:15:53.215Z,11.58
2018-12-07T03:16:27.870Z,11.52
2018-12-07T03:17:02.467Z,11.52
2018-12-07T03:17:37.062Z,11.51
2018-12-07T03:18:42.905Z,11.52
2018-12-07T03:19:17.625Z,11.46
2018-12-07T03:19:52.521Z,11.49
2018-12-07T03:20:27.182Z,11.46
2018-12-07T03:21:01.832Z,11.45
2018-12-07T03:21:36.412Z,11.53
2018-12-07T03:22:11.010Z,11.47
2018-12-07T03:22:45.663Z,11.44
2018-12-07T03:23:20.457Z,11.45
2018-12-07T03:23:55.169Z,11.51
2018-12-07T03:24:29.785Z,11.51
2018-12-07T03:25:05.787Z,11.45
2018-12-07T03:25:40.413Z,11.49
2018-12-07T03:26:15.085Z,11.46
2018-12-07T03:26:49.690Z,11.49
2018-12-07T03:27:24.281Z,11.45
2018-12-07T03:27:58.890Z,11.47
2018-12-07T03:28:33.473Z,11.46
2018-12-07T03:29:08.054Z,11.52
2018-12-07T03:29:42.644Z,11.55
2018-12-07T03:30:17.295Z,11.49
2018-12-07T03:30:52.019Z,11.49
2018-12-07T03:31:26.658Z,11.54
2018-12-07T03:32:01.271Z,11.51
2018-12-07T03:32:36.136Z,11.55
2018-12-07T03:33:10.834Z,11.52
2018-12-07T03:33:45.444Z,11.49
2018-12-07T03:34:20.118Z,11.45
2018-12-07T03:34:54.790Z,11.44
2018-12-07T03:35:29.398Z,11.50
2018-12-07T03:36:04.033Z,11.48
2018-12-07T03:36:38.742Z,11.44
2018-12-07T03:37:13.332Z,11.44
2018-12-07T03:37:47.947Z,11.56
2018-12-07T03:38:22.679Z,11.60
2018-12-07T03:38:57.252Z,11.54
2018-12-07T03:39:31.840Z,11.51
2018-12-07T03:40:07.358Z,11.48
2018-12-07T03:40:41.979Z,11.41
2018-12-07T03:41:16.892Z,11.41
2018-12-07T03:41:51.979Z,11.36
2018-12-07T03:42:26.566Z,11.41
2018-12-07T03:43:01.226Z,11.50
2018-12-07T03:43:35.842Z,11.53
2018-12-07T03:44:10.430Z,11.55
2018-12-07T03:44:45.111Z,11.61
2018-12-07T03:45:19.917Z,11.58
2018-12-07T03:45:54.618Z,11.54
2018-12-07T03:46:29.763Z,11.54
2018-12-07T03:47:04.869Z,11.58
2018-12-07T03:47:39.550Z,11.58
2018-12-07T03:48:14.173Z,11.52
2018-12-07T03:48:49.152Z,11.54
2018-12-07T03:49:23.957Z,11.56
2018-12-07T03:49:58.617Z,11.50
2018-12-07T03:50:33.233Z,11.43
2018-12-07T03:51:07.870Z,11.39
2018-12-07T03:51:42.500Z,11.50
2018-12-07T03:52:17.229Z,11.52
2018-12-07T03:52:51.941Z,11.49
2018-12-07T03:53:26.586Z,11.47
2018-12-07T03:55:04.531Z,11.42
2018-12-07T03:55:39.193Z,11.51
2018-12-07T03:56:13.838Z,11.55
2018-12-07T03:56:48.647Z,11.52
2018-12-07T03:57:23.465Z,11.54
2018-12-07T03:57:58.134Z,11.58
2018-12-07T03:58:32.793Z,11.54
2018-12-07T03:59:07.486Z,11.28
2018-12-07T03:59:42.126Z,11.54
2018-12-07T04:00:16.802Z,11.49
2018-12-07T04:01:54.600Z,11.49
2018-12-07T04:02:29.811Z,11.46
2018-12-07T04:03:04.416Z,11.51
2018-12-07T04:03:39.065Z,11.56
2018-12-07T04:04:14.261Z,11.50
2018-12-07T04:04:49.179Z,11.47
2018-12-07T04:05:23.828Z,11.53
2018-12-07T04:05:58.541Z,11.45
2018-12-07T04:06:33.382Z,11.52
2018-12-07T04:07:08.490Z,11.46
2018-12-07T04:07:43.159Z,11.48
2018-12-07T04:08:17.863Z,11.48
2018-12-07T04:08:52.564Z,11.51
2018-12-07T04:09:27.209Z,11.45
2018-12-07T04:10:01.840Z,11.45
2018-12-07T04:10:36.445Z,11.44
2018-12-07T04:11:11.084Z,11.47
2018-12-07T04:11:45.791Z,11.46
2018-12-07T04:12:20.582Z,11.49
2018-12-07T04:12:55.246Z,11.48
2018-12-07T04:13:29.941Z,11.45
2018-12-07T04:14:05.029Z,11.41
2018-12-07T04:14:39.641Z,11.46
2018-12-07T04:15:14.310Z,11.50
2018-12-07T04:15:49.395Z,11.51
2018-12-07T04:16:24.574Z,11.45
2018-12-07T04:16:59.413Z,11.45
2018-12-07T04:17:34.048Z,11.46
2018-12-07T04:18:08.923Z,11.47
2018-12-07T04:18:43.550Z,11.53
2018-12-07T04:19:18.381Z,11.51
2018-12-07T04:19:53.090Z,11.53
2018-12-07T04:20:27.701Z,11.52
2018-12-07T04:21:02.352Z,11.49
2018-12-07T04:21:36.977Z,11.37
2018-12-07T04:23:14.665Z,11.46
2018-12-07T04:23:49.659Z,11.43
2018-12-07T04:24:24.372Z,11.46
2018-12-07T04:24:59.075Z,11.43
2018-12-07T04:25:33.799Z,11.47
2018-12-07T04:26:08.451Z,11.44
2018-12-07T04:26:43.059Z,11.42
2018-12-07T04:27:17.784Z,11.49
2018-12-07T04:27:52.890Z,11.45
2018-12-07T04:28:27.536Z,11.46
2018-12-07T04:29:02.170Z,11.40
2018-12-07T04:29:36.778Z,11.39
2018-12-07T04:30:23.100Z,11.41
2018-12-07T04:30:57.823Z,11.45
2018-12-07T04:31:32.578Z,11.50
2018-12-07T04:32:07.254Z,11.55
2018-12-07T04:32:41.853Z,11.50
2018-12-07T04:33:16.646Z,11.50
2018-12-07T04:33:51.646Z,11.49
2018-12-07T04:34:26.836Z,11.53
2018-12-07T04:35:01.442Z,11.49
2018-12-07T04:35:36.056Z,11.46
2018-12-07T04:36:10.688Z,11.52
2018-12-07T04:36:45.314Z,11.51
2018-12-07T04:37:20.061Z,11.50
2018-12-07T04:37:55.050Z,11.51
2018-12-07T04:38:29.662Z,11.51
2018-12-07T04:39:06.554Z,11.45
2018-12-07T04:39:41.170Z,11.46
2018-12-07T04:40:16.399Z,11.46
2018-12-07T04:40:51.113Z,11.47
2018-12-07T04:41:25.809Z,11.52
2018-12-07T04:42:00.422Z,11.58
2018-12-07T04:42:35.229Z,11.59
2018-12-07T04:43:09.850Z,11.49
2018-12-07T04:43:44.547Z,11.52
2018-12-07T04:44:19.360Z,11.51
2018-12-07T04:44:54.165Z,11.44
2018-12-07T04:45:29.244Z,11.48
2018-12-07T04:46:04.342Z,11.46
2018-12-07T04:46:38.947Z,11.49
2018-12-07T04:47:13.553Z,11.53
2018-12-07T04:47:48.393Z,11.61
2018-12-07T04:48:23.127Z,11.57
2018-12-07T04:48:57.779Z,11.52
2018-12-07T04:49:32.381Z,11.49
2018-12-07T04:50:07.991Z,11.53
2018-12-07T04:50:42.572Z,11.63
2018-12-07T04:51:17.661Z,11.63
2018-12-07T04:51:52.531Z,11.65
2018-12-07T04:52:27.109Z,11.60
2018-12-07T04:53:01.700Z,11.56
2018-12-07T04:53:36.724Z,11.60
2018-12-07T04:54:11.336Z,11.51
2018-12-07T04:54:45.970Z,11.52
2018-12-07T04:55:20.915Z,11.56
2018-12-07T04:55:55.593Z,11.61
2018-12-07T04:56:30.306Z,11.54
2018-12-07T04:57:05.755Z,11.54
2018-12-07T04:57:40.368Z,11.58
2018-12-07T04:58:15.137Z,11.57
2018-12-07T04:58:50.148Z,11.58
2018-12-07T04:59:25.000Z,11.57
2018-12-07T04:59:59.861Z,11.60
2018-12-07T05:00:34.447Z,11.53
2018-12-07T05:01:09.342Z,11.57
2018-12-07T05:01:44.406Z,11.50
2018-12-07T05:02:19.166Z,11.46
2018-12-07T05:02:54.483Z,11.46
2018-12-07T05:03:29.080Z,11.45
2018-12-07T05:04:03.672Z,11.47
2018-12-07T05:04:38.248Z,11.43
2018-12-07T05:05:12.846Z,11.42
2018-12-07T05:05:48.668Z,11.36
2018-12-07T05:06:23.541Z,11.38
2018-12-07T05:06:58.204Z,11.32
2018-12-07T05:07:32.872Z,11.42
2018-12-07T05:08:07.483Z,11.40
2018-12-07T05:08:42.074Z,11.39
2018-12-07T05:09:16.761Z,11.46
2018-12-07T05:09:51.982Z,11.43
2018-12-07T05:10:26.608Z,11.38
2018-12-07T05:11:01.204Z,11.43
2018-12-07T05:11:35.907Z,11.39
2018-12-07T05:12:10.718Z,11.33
2018-12-07T05:12:45.904Z,11.39
2018-12-07T05:13:21.088Z,11.33
2018-12-07T05:13:55.738Z,11.41
2018-12-07T05:14:30.326Z,11.43
2018-12-07T05:15:06.396Z,11.38
2018-12-07T05:15:41.081Z,11.31
2018-12-07T05:16:15.714Z,11.26
2018-12-07T05:16:50.610Z,11.24
2018-12-07T05:17:25.355Z,11.25
2018-12-07T05:18:00.010Z,11.30
2018-12-07T05:18:34.595Z,11.28
2018-12-07T05:19:09.192Z,11.26
2018-12-07T05:19:43.807Z,11.29
2018-12-07T05:20:18.495Z,11.25
2018-12-07T05:20:53.244Z,11.25
2018-12-07T05:21:27.918Z,11.24
2018-12-07T05:22:02.550Z,11.24
2018-12-07T05:22:37.159Z,11.23
2018-12-07T05:23:12.493Z,11.22
2018-12-07T05:23:47.447Z,11.28
2018-12-07T05:24:22.839Z,11.40
2018-12-07T05:24:57.665Z,11.34
2018-12-07T05:25:32.466Z,11.37
2018-12-07T05:26:07.193Z,11.28
2018-12-07T05:26:41.834Z,11.33
2018-12-07T05:27:16.571Z,11.32
2018-12-07T05:27:51.587Z,11.27
2018-12-07T05:28:26.273Z,11.33
2018-12-07T05:29:01.309Z,11.33
2018-12-07T05:29:35.982Z,11.40
2018-12-07T05:30:10.736Z,11.41
2018-12-07T05:30:45.351Z,11.43
2018-12-07T05:31:20.118Z,11.45
2018-12-07T05:31:54.951Z,11.42
2018-12-07T05:32:29.597Z,11.42
2018-12-07T05:33:04.210Z,11.36
2018-12-07T05:33:38.953Z,11.28
2018-12-07T05:34:14.050Z,11.29
2018-12-07T05:34:48.701Z,11.23
2018-12-07T05:35:23.534Z,11.21
2018-12-07T05:35:58.328Z,11.22
2018-12-07T05:36:33.006Z,11.21
2018-12-07T05:37:07.622Z,11.26
2018-12-07T05:37:42.253Z,11.18
2018-12-07T05:38:17.387Z,11.16
2018-12-07T05:38:52.196Z,11.12
2018-12-07T05:39:28.364Z,11.08
2018-12-07T05:40:03.646Z,11.02
2018-12-07T05:40:38.261Z,11.10
2018-12-07T05:41:13.142Z,11.06
2018-12-07T05:41:47.843Z,11.08
2018-12-07T05:42:22.888Z,11.01
2018-12-07T05:42:57.596Z,10.78
2018-12-07T05:43:32.215Z,11.05
2018-12-07T05:44:06.883Z,11.01
2018-12-07T05:44:41.550Z,11.10
2018-12-07T05:45:16.327Z,11.10
2018-12-07T05:45:51.444Z,11.13
2018-12-07T05:46:26.145Z,11.11
2018-12-07T05:47:00.828Z,11.12
2018-12-07T05:47:35.898Z,11.22
2018-12-07T05:48:10.510Z,11.12
2018-12-07T05:48:45.117Z,11.10
2018-12-07T05:49:19.885Z,11.11
2018-12-07T05:49:54.924Z,11.12
2018-12-07T05:50:29.583Z,11.10
2018-12-07T05:51:04.195Z,11.13
2018-12-07T05:51:38.910Z,11.15
2018-12-07T05:52:13.663Z,11.16
2018-12-07T05:52:48.588Z,11.15
2018-12-07T05:53:23.630Z,11.16
2018-12-07T05:53:58.516Z,11.10
2018-12-07T05:54:33.238Z,11.08
2018-12-07T05:55:08.281Z,11.05
2018-12-07T05:55:42.895Z,11.08
2018-12-07T05:56:17.634Z,11.08
2018-12-07T05:56:52.605Z,11.14
2018-12-07T05:57:27.278Z,11.14
2018-12-07T05:58:02.317Z,11.16
2018-12-07T05:58:36.966Z,11.18
2018-12-07T05:59:11.561Z,11.21
2018-12-07T05:59:46.195Z,11.22
2018-12-07T06:00:20.885Z,11.20
2018-12-07T06:00:55.644Z,11.21
2018-12-07T06:01:30.420Z,11.21
2018-12-07T06:02:05.273Z,11.25
2018-12-07T06:02:40.003Z,11.24
2018-12-07T06:03:14.616Z,11.23
2018-12-07T06:03:49.378Z,11.21
2018-12-07T06:04:24.047Z,11.20
2018-12-07T06:04:58.736Z,11.19
2018-12-07T06:05:33.364Z,11.18
2018-12-07T06:06:08.635Z,11.18
2018-12-07T06:06:43.265Z,11.21
2018-12-07T06:07:18.160Z,11.12
2018-12-07T06:07:52.958Z,11.17
2018-12-07T06:08:27.654Z,11.22
2018-12-07T06:09:02.725Z,11.22
2018-12-07T06:09:37.504Z,11.21
2018-12-07T06:10:12.696Z,11.22
2018-12-07T06:10:47.681Z,11.23
2018-12-07T06:11:23.253Z,11.22
2018-12-07T06:11:58.373Z,11.18
2018-12-07T06:12:33.713Z,11.09
2018-12-07T06:13:08.373Z,11.05
2018-12-07T06:13:43.004Z,11.07
2018-12-07T06:14:17.753Z,11.07
2018-12-07T06:14:52.559Z,11.10
2018-12-07T06:15:27.444Z,11.07
2018-12-07T06:16:02.071Z,11.16
2018-12-07T06:16:36.752Z,11.14
2018-12-07T06:17:11.643Z,11.10
2018-12-07T06:17:46.344Z,11.09
2018-12-07T06:18:21.390Z,11.17
2018-12-07T06:18:56.291Z,11.13
2018-12-07T06:19:31.396Z,11.10
2018-12-07T06:20:06.860Z,11.10
2018-12-07T06:20:41.551Z,11.09
2018-12-07T06:21:16.328Z,11.10
2018-12-07T06:21:51.687Z,11.09
2018-12-07T06:22:26.510Z,11.16
2018-12-07T06:23:01.126Z,11.14
2018-12-07T06:23:35.871Z,11.10
2018-12-07T06:24:10.557Z,11.11
2018-12-07T06:24:45.274Z,11.10
2018-12-07T06:25:20.138Z,11.11
2018-12-07T06:25:54.930Z,11.14
2018-12-07T06:26:29.578Z,11.19
2018-12-07T06:27:04.633Z,11.13
2018-12-07T06:27:39.253Z,11.19
2018-12-07T06:28:13.932Z,11.17
2018-12-07T06:28:48.612Z,11.20
2018-12-07T06:29:23.441Z,11.13
2018-12-07T06:29:58.162Z,11.11
2018-12-07T06:30:33.187Z,11.13
2018-12-07T06:31:08.113Z,11.14
2018-12-07T06:31:42.709Z,11.24
2018-12-07T06:32:17.581Z,11.22
2018-12-07T06:32:52.294Z,11.22
2018-12-07T06:33:26.932Z,11.13
2018-12-07T06:34:01.645Z,11.09
2018-12-07T06:34:36.426Z,11.08
2018-12-07T06:35:11.109Z,11.09
2018-12-07T06:35:45.822Z,11.05
2018-12-07T06:36:20.825Z,11.08
2018-12-07T06:36:55.576Z,11.07
2018-12-07T06:37:30.231Z,11.07
2018-12-07T06:38:04.857Z,11.06
2018-12-07T06:38:39.493Z,11.03
2018-12-07T06:39:14.129Z,11.03
2018-12-07T06:39:49.023Z,11.04
2018-12-07T06:40:24.084Z,11.11
2018-12-07T06:40:58.762Z,11.14
2018-12-07T06:41:33.430Z,11.18
2018-12-07T06:42:08.180Z,11.19
2018-12-07T06:42:42.954Z,11.17
2018-12-07T06:43:17.950Z,11.13
2018-12-07T06:43:52.656Z,11.14
2018-12-07T06:44:27.490Z,11.15
2018-12-07T06:45:02.187Z,11.13
2018-12-07T06:45:36.907Z,11.21
2018-12-07T06:46:11.538Z,11.21
2018-12-07T06:46:46.275Z,11.21
2018-12-07T06:47:21.279Z,11.19
2018-12-07T06:47:56.115Z,11.23
2018-12-07T06:48:31.069Z,11.33
2018-12-07T06:49:11.400Z,11.31
2018-12-07T06:49:46.075Z,11.28
2018-12-07T06:50:21.528Z,11.23
2018-12-07T06:50:57.097Z,11.27
2018-12-07T06:51:31.708Z,11.23
2018-12-07T06:52:06.337Z,11.28
2018-12-07T06:52:40.976Z,11.23
2018-12-07T06:53:15.673Z,11.25
2018-12-07T06:53:50.554Z,11.25
2018-12-07T06:54:25.296Z,11.22
2018-12-07T06:54:59.950Z,11.16
2018-12-07T06:55:34.530Z,11.21
2018-12-07T06:56:09.156Z,11.22
2018-12-07T06:56:44.307Z,11.26
2018-12-07T06:57:19.447Z,11.24
2018-12-07T06:57:54.634Z,11.31
2018-12-07T06:58:29.269Z,11.29
2018-12-07T06:59:04.338Z,11.26
2018-12-07T06:59:38.935Z,11.34
2018-12-07T07:00:14.059Z,11.31
2018-12-07T07:00:48.737Z,11.28
2018-12-07T07:01:23.426Z,11.30
2018-12-07T07:01:58.050Z,11.28
2018-12-07T07:02:32.674Z,11.30
2018-12-07T07:03:07.273Z,11.30
2018-12-07T07:03:41.874Z,11.28
2018-12-07T07:04:16.749Z,11.27
2018-12-07T07:04:51.673Z,11.28
2018-12-07T07:05:26.335Z,11.25
2018-12-07T07:06:00.957Z,11.29
2018-12-07T07:06:35.623Z,11.26
2018-12-07T07:07:10.244Z,11.28
2018-12-07T07:07:44.972Z,11.33
2018-12-07T07:08:20.047Z,11.32
2018-12-07T07:08:54.712Z,11.30
2018-12-07T07:09:29.342Z,11.38
2018-12-07T07:10:04.910Z,11.33
2018-12-07T07:10:39.541Z,11.29
2018-12-07T07:11:14.198Z,11.34
2018-12-07T07:11:48.981Z,11.34
2018-12-07T07:12:23.801Z,11.38
2018-12-07T07:12:58.659Z,11.38
2018-12-07T07:13:33.242Z,11.35
2018-12-07T07:14:07.881Z,11.26
2018-12-07T07:14:42.483Z,11.24
2018-12-07T07:15:17.555Z,11.27
2018-12-07T07:15:52.295Z,11.31
2018-12-07T07:16:27.031Z,11.25
2018-12-07T07:17:01.640Z,11.22
2018-12-07T07:17:36.352Z,11.18
2018-12-07T07:18:10.964Z,11.15
2018-12-07T07:18:45.870Z,11.18
2018-12-07T07:19:20.786Z,11.15
2018-12-07T07:19:55.810Z,11.13
2018-12-07T07:20:30.419Z,11.12
2018-12-07T07:21:05.017Z,11.11
2018-12-07T07:21:39.690Z,11.14
2018-12-07T07:22:14.331Z,11.13
2018-12-07T07:22:49.284Z,11.10
2018-12-07T07:23:24.135Z,11.09
2018-12-07T07:23:58.753Z,11.10
2018-12-07T07:24:33.363Z,11.08
2018-12-07T07:25:08.726Z,11.08
2018-12-07T07:25:43.344Z,11.00
2018-12-07T07:26:18.151Z,11.00
2018-12-07T07:26:52.886Z,10.95
2018-12-07T07:27:27.485Z,10.94
2018-12-07T07:28:02.088Z,10.98
2018-12-07T07:28:36.717Z,10.99
2018-12-07T07:29:11.417Z,10.93
2018-12-07T07:29:46.052Z,10.92
2018-12-07T07:30:20.791Z,10.91
2018-12-07T07:30:55.516Z,10.90
2018-12-07T07:31:30.129Z,10.90
2018-12-07T07:32:05.276Z,10.87
2018-12-07T07:32:39.930Z,10.83
2018-12-07T07:33:15.064Z,10.85
2018-12-07T07:33:49.734Z,10.83